createdAt,value
2018-08-06T00:00:41.656Z,19.20
2018-08-06T00:03:12.165Z,19.20
2018-08-06T00:05:42.505Z,19.20
2018-08-06T00:08:12.971Z,19.20
2018-08-06T00:10:43.135Z,19.10
2018-08-06T00:13:13.403Z,19.10
2018-08-06T00:15:43.577Z,19.00
2018-08-06T00:18:13.845Z,18.90
2018-08-06T00:20:44.044Z,19.00
2018-08-06T00:23:14.288Z,18.90
2018-08-06T00:25:44.409Z,18.90
2018-08-06T00:28:14.552Z,18.90
2018-08-06T00:30:44.643Z,18.80
2018-08-06T00:33:14.772Z,18.80
2018-08-06T00:35:44.955Z,18.70
2018-08-06T00:38:15.185Z,18.70
2018-08-06T00:40:45.333Z,18.70
2018-08-06T00:43:15.553Z,18.70
2018-08-06T00:45:45.645Z,18.70
2018-08-06T00:48:15.866Z,18.60
2018-08-06T00:50:45.973Z,18.60
2018-08-06T00:53:16.131Z,18.60
2018-08-06T00:55:46.216Z,18.50
2018-08-06T00:58:16.481Z,18.50
2018-08-06T01:00:46.595Z,18.50
2018-08-06T01:03:16.737Z,18.40
2018-08-06T01:05:46.897Z,18.40
2018-08-06T01:08:17.113Z,18.30
2018-08-06T01:10:47.232Z,18.30
2018-08-06T01:13:17.449Z,18.30
2018-08-06T01:15:47.708Z,18.20
2018-08-06T01:18:17.880Z,18.20
2018-08-06T01:20:48.053Z,18.10
2018-08-06T01:23:18.174Z,18.10
2018-08-06T01:25:48.433Z,18.00
2018-08-06T01:28:18.637Z,18.00
2018-08-06T01:30:48.821Z,17.90
2018-08-06T01:33:19.146Z,18.00
2018-08-06T01:35:49.381Z,17.90
2018-08-06T01:38:19.602Z,18.00
2018-08-06T01:40:49.696Z,18.00
2018-08-06T01:43:19.869Z,18.00
2018-08-06T01:45:50.045Z,17.90
2018-08-06T01:48:20.206Z,17.90
2018-08-06T01:50:50.330Z,17.90
2018-08-06T01:53:20.539Z,17.80
2018-08-06T01:55:50.939Z,17.70
2018-08-06T01:58:21.191Z,17.70
2018-08-06T02:00:51.423Z,17.60
2018-08-06T02:03:21.639Z,17.60
2018-08-06T02:05:51.755Z,17.60
2018-08-06T02:08:21.960Z,17.60
2018-08-06T02:10:52.157Z,17.60
2018-08-06T02:13:22.319Z,17.60
2018-08-06T02:15:52.571Z,17.50
2018-08-06T02:18:22.785Z,17.50
2018-08-06T02:20:52.988Z,17.50
2018-08-06T02:23:23.194Z,17.50
2018-08-06T02:25:53.520Z,17.50
2018-08-06T02:28:23.682Z,17.50
2018-08-06T02:30:53.898Z,17.50
2018-08-06T02:33:24.135Z,17.40
2018-08-06T02:35:54.328Z,17.40
2018-08-06T02:38:24.552Z,17.40
2018-08-06T02:40:54.782Z,17.40
2018-08-06T02:43:25.136Z,17.30
2018-08-06T02:45:55.404Z,17.20
2018-08-06T02:48:25.689Z,17.20
2018-08-06T02:50:55.867Z,17.10
2018-08-06T02:53:26.007Z,17.10
2018-08-06T02:55:56.228Z,17.10
2018-08-06T02:58:26.544Z,17.10
2018-08-06T03:00:56.631Z,17.10
2018-08-06T03:03:26.824Z,17.00
2018-08-06T03:05:57.016Z,17.00
2018-08-06T03:08:27.247Z,17.00
2018-08-06T03:10:57.350Z,16.90
2018-08-06T03:13:27.518Z,16.90
2018-08-06T03:15:57.927Z,16.90
2018-08-06T03:18:28.139Z,16.90
2018-08-06T03:20:58.330Z,16.90
2018-08-06T03:23:28.495Z,16.90
2018-08-06T03:25:58.846Z,16.80
2018-08-06T03:28:29.032Z,16.80
2018-08-06T03:30:59.195Z,16.70
2018-08-06T03:33:29.416Z,16.70
2018-08-06T03:35:59.584Z,16.70
2018-08-06T03:38:29.824Z,16.60
2018-08-06T03:41:00.011Z,16.60
2018-08-06T03:43:30.233Z,16.50
2018-08-06T03:46:00.462Z,16.50
2018-08-06T03:48:30.715Z,16.50
2018-08-06T03:51:00.854Z,16.50
2018-08-06T03:53:31.413Z,16.40
2018-08-06T03:56:01.570Z,16.40
2018-08-06T03:58:31.892Z,16.40
2018-08-06T04:01:01.960Z,16.30
2018-08-06T04:03:32.123Z,16.30
2018-08-06T04:06:02.239Z,16.30
2018-08-06T04:08:32.427Z,16.30
2018-08-06T04:11:02.623Z,16.30
2018-08-06T04:13:32.825Z,16.20
2018-08-06T04:16:03.084Z,16.30
2018-08-06T04:18:33.479Z,16.20
2018-08-06T04:21:03.681Z,16.20
2018-08-06T04:23:33.889Z,16.10
2018-08-06T04:26:04.045Z,16.10
2018-08-06T04:28:34.188Z,16.10
2018-08-06T04:31:04.351Z,16.20
2018-08-06T04:33:34.602Z,16.30
2018-08-06T04:36:04.743Z,16.30
2018-08-06T04:38:34.981Z,16.20
2018-08-06T04:41:05.072Z,16.30
2018-08-06T04:43:35.243Z,16.30
2018-08-06T04:46:05.676Z,16.40
2018-08-06T04:51:05.510Z,16.60
2018-08-06T04:53:35.792Z,16.70
2018-08-06T04:56:06.037Z,16.80
2018-08-06T04:58:36.203Z,16.80
2018-08-06T05:01:06.441Z,16.90
2018-08-06T05:03:36.692Z,17.00
2018-08-06T05:06:06.964Z,17.00
2018-08-06T05:08:37.145Z,17.10
2018-08-06T05:11:07.471Z,17.10
2018-08-06T05:13:37.715Z,17.20
2018-08-06T05:16:08.036Z,17.20
2018-08-06T05:18:38.212Z,17.30
2018-08-06T05:21:08.412Z,17.40
2018-08-06T05:23:55.185Z,17.40
2018-08-06T05:26:26.439Z,17.50
2018-08-06T05:28:56.690Z,17.70
2018-08-06T05:31:28.117Z,17.80
2018-08-06T05:33:59.326Z,17.80
2018-08-06T05:36:29.591Z,17.90
2018-08-06T05:38:59.774Z,17.90
2018-08-06T05:41:29.945Z,18.10
2018-08-06T05:44:00.159Z,18.20
2018-08-06T05:46:30.300Z,18.30
2018-08-06T05:49:00.536Z,18.50
2018-08-06T05:51:30.761Z,18.60
2018-08-06T05:54:01.051Z,18.70
2018-08-06T05:56:31.255Z,18.90
2018-08-06T05:59:01.436Z,19.50
2018-08-06T06:01:31.689Z,20.80
2018-08-06T06:04:01.920Z,22.40
2018-08-06T06:06:32.054Z,23.80
2018-08-06T06:09:02.294Z,24.80
2018-08-06T06:11:32.422Z,25.40
2018-08-06T06:14:02.576Z,26.20
2018-08-06T06:16:32.781Z,26.80
2018-08-06T06:19:02.960Z,27.20
2018-08-06T06:21:33.253Z,27.80
2018-08-06T06:24:03.560Z,28.30
2018-08-06T06:26:33.731Z,28.70
2018-08-06T06:29:04.045Z,28.90
2018-08-06T06:31:34.226Z,29.30
2018-08-06T06:34:04.641Z,29.80
2018-08-06T06:36:34.773Z,30.60
2018-08-06T06:39:07.560Z,30.90
2018-08-06T06:41:38.492Z,31.30
2018-08-06T06:44:09.257Z,31.60
2018-08-06T06:46:40.184Z,31.60
2018-08-06T06:49:10.984Z,31.50
2018-08-06T06:51:41.425Z,31.30
2018-08-06T06:54:14.485Z,31.20
2018-08-06T06:56:45.188Z,31.20
2018-08-06T06:59:15.367Z,31.60
2018-08-06T07:01:45.495Z,31.40
2018-08-06T07:04:15.764Z,31.20
2018-08-06T07:06:45.914Z,31.50
2018-08-06T07:09:16.009Z,31.80
2018-08-06T07:11:46.129Z,32.10
2018-08-06T07:14:16.503Z,32.30
2018-08-06T07:16:46.668Z,32.40
2018-08-06T07:19:16.966Z,32.10
2018-08-06T07:21:47.201Z,32.10
2018-08-06T07:24:17.477Z,32.30
2018-08-06T07:26:47.671Z,32.50
2018-08-06T07:29:17.927Z,32.60
2018-08-06T07:31:48.244Z,32.40
2018-08-06T07:34:18.529Z,32.40
2018-08-06T07:39:18.658Z,32.30
2018-08-06T07:41:48.961Z,32.40
2018-08-06T07:44:19.343Z,32.40
2018-08-06T07:46:49.551Z,32.30
2018-08-06T07:49:20.015Z,31.80
2018-08-06T07:51:50.242Z,32.10
2018-08-06T07:54:20.617Z,32.10
2018-08-06T07:56:50.846Z,32.20
2018-08-06T07:59:21.016Z,31.50
2018-08-06T08:01:51.212Z,31.00
2018-08-06T08:06:51.712Z,31.30
2018-08-06T08:09:21.945Z,31.30
2018-08-06T08:11:52.453Z,31.20
2018-08-06T08:14:22.700Z,31.60
2018-08-06T08:16:52.873Z,31.90
2018-08-06T08:19:23.311Z,32.20
2018-08-06T08:21:53.520Z,32.60
2018-08-06T08:24:23.717Z,32.80
2018-08-06T08:26:53.883Z,32.60
2018-08-06T08:29:24.073Z,32.70
2018-08-06T08:31:54.233Z,32.90
2018-08-06T08:34:24.457Z,33.00
2018-08-06T08:36:54.655Z,33.60
2018-08-06T08:39:24.849Z,33.70
2018-08-06T08:41:55.107Z,33.80
2018-08-06T08:44:25.235Z,33.80
2018-08-06T08:46:55.364Z,34.00
2018-08-06T08:49:25.540Z,34.60
2018-08-06T08:51:55.733Z,34.50
2018-08-06T08:54:25.934Z,34.70
2018-08-06T08:56:56.110Z,35.10
2018-08-06T08:59:26.277Z,35.40
2018-08-06T09:01:56.432Z,35.60
2018-08-06T09:04:26.657Z,35.30
2018-08-06T09:06:56.821Z,35.10
2018-08-06T09:09:26.926Z,34.50
2018-08-06T09:11:57.157Z,34.40
2018-08-06T09:14:27.314Z,34.60
2018-08-06T09:16:57.477Z,34.70
2018-08-06T09:19:27.746Z,34.90
2018-08-06T09:21:57.847Z,35.30
2018-08-06T09:27:44.739Z,34.80
2018-08-06T09:30:18.260Z,34.20
2018-08-06T09:32:49.627Z,33.60
2018-08-06T09:35:20.396Z,33.60
2018-08-06T09:37:50.857Z,33.90
2018-08-06T09:40:22.157Z,34.10
2018-08-06T09:42:52.789Z,34.50
2018-08-06T09:45:23.530Z,34.90
2018-08-06T09:47:54.733Z,34.60
2018-08-06T09:50:24.946Z,34.50
2018-08-06T09:52:56.591Z,34.10
2018-08-06T09:55:28.548Z,34.20
2018-08-06T09:57:58.742Z,34.00
2018-08-06T10:00:33.982Z,33.60
2018-08-06T10:03:04.231Z,33.10
2018-08-06T10:05:34.480Z,32.50
2018-08-06T10:08:04.732Z,32.00
2018-08-06T10:10:34.943Z,31.30
2018-08-06T10:13:05.168Z,31.00
2018-08-06T10:15:35.387Z,30.60
2018-08-06T10:18:05.664Z,30.40
2018-08-06T10:20:35.879Z,30.20
2018-08-06T10:25:35.842Z,30.40
2018-08-06T10:28:06.006Z,30.60
2018-08-06T10:30:36.207Z,30.70
2018-08-06T10:33:06.394Z,30.80
2018-08-06T10:35:36.551Z,30.90
2018-08-06T10:38:06.706Z,30.80
2018-08-06T10:40:36.899Z,30.80
2018-08-06T10:43:07.107Z,30.70
2018-08-06T10:45:37.217Z,30.60
2018-08-06T10:48:07.315Z,30.60
2018-08-06T10:50:37.485Z,30.60
2018-08-06T10:53:07.798Z,30.70
2018-08-06T10:55:37.992Z,30.80
2018-08-06T10:58:08.227Z,31.00
2018-08-06T11:00:38.394Z,30.90
2018-08-06T11:03:08.692Z,31.00
2018-08-06T11:05:38.956Z,31.00
2018-08-06T11:08:09.175Z,31.10
2018-08-06T11:10:39.434Z,31.30
2018-08-06T11:13:09.574Z,31.30
2018-08-06T11:15:39.711Z,31.00
2018-08-06T11:18:09.829Z,30.90
2018-08-06T11:20:39.914Z,31.00
2018-08-06T11:23:10.015Z,31.20
2018-08-06T11:25:40.253Z,31.30
2018-08-06T11:28:10.436Z,31.50
2018-08-06T11:30:40.541Z,31.60
2018-08-06T11:33:10.689Z,31.60
2018-08-06T11:35:40.977Z,31.60
2018-08-06T11:38:11.100Z,31.80
2018-08-06T11:40:41.255Z,31.80
2018-08-06T11:45:41.173Z,31.80
2018-08-06T11:48:11.228Z,31.80
2018-08-06T11:50:41.373Z,31.80
2018-08-06T11:53:11.464Z,31.90
2018-08-06T11:55:41.762Z,31.90
2018-08-06T11:58:11.938Z,31.90
2018-08-06T12:00:45.153Z,31.90
2018-08-06T12:03:15.253Z,31.90
2018-08-06T12:05:45.364Z,31.90
2018-08-06T12:08:15.491Z,31.90
2018-08-06T12:10:45.668Z,31.90
2018-08-06T12:13:15.718Z,32.10
2018-08-06T12:15:45.945Z,32.20
2018-08-06T12:18:15.949Z,32.30
2018-08-06T12:20:46.071Z,32.30
2018-08-06T12:23:16.155Z,32.30
2018-08-06T12:25:46.331Z,32.30
2018-08-06T12:28:16.393Z,32.30
2018-08-06T12:30:46.592Z,32.30
2018-08-06T12:33:16.636Z,32.30
2018-08-06T12:35:46.870Z,32.30
2018-08-06T12:38:16.971Z,32.20
2018-08-06T12:40:47.095Z,32.20
2018-08-06T12:43:17.271Z,32.10
2018-08-06T12:45:47.405Z,32.00
2018-08-06T12:48:17.562Z,31.90
2018-08-06T12:50:47.707Z,31.90
2018-08-06T12:53:17.756Z,31.90
2018-08-06T12:55:47.991Z,32.10
2018-08-06T12:58:18.067Z,32.10
2018-08-06T13:00:48.195Z,32.10
2018-08-06T13:03:18.265Z,32.10
2018-08-06T13:05:48.404Z,32.30
2018-08-06T13:08:18.554Z,32.40
2018-08-06T13:10:48.734Z,32.30
2018-08-06T13:13:18.850Z,32.30
2018-08-06T13:15:48.997Z,32.30
2018-08-06T13:18:19.166Z,32.30
2018-08-06T13:20:49.309Z,32.30
2018-08-06T13:25:49.068Z,32.50
2018-08-06T13:28:19.240Z,32.50
2018-08-06T13:30:49.382Z,32.50
2018-08-06T13:33:19.473Z,32.40
2018-08-06T13:35:49.573Z,32.40
2018-08-06T13:38:19.674Z,32.50
2018-08-06T13:40:49.834Z,32.50
2018-08-06T13:43:20.061Z,32.60
2018-08-06T13:45:50.218Z,32.60
2018-08-06T13:48:20.334Z,32.50
2018-08-06T13:50:50.430Z,32.50
2018-08-06T13:53:20.599Z,32.60
2018-08-06T13:55:50.723Z,32.60
2018-08-06T13:58:20.793Z,32.80
2018-08-06T14:00:50.993Z,32.90
2018-08-06T14:03:21.163Z,33.00
2018-08-06T14:05:51.333Z,33.00
2018-08-06T14:08:21.448Z,33.00
2018-08-06T14:10:51.590Z,33.00
2018-08-06T14:13:21.636Z,32.90
2018-08-06T14:15:51.843Z,32.80
2018-08-06T14:18:21.990Z,32.60
2018-08-06T14:20:52.121Z,32.60
2018-08-06T14:23:22.254Z,32.80
2018-08-06T14:25:52.397Z,32.80
2018-08-06T14:28:22.542Z,32.80
2018-08-06T14:30:52.703Z,32.80
2018-08-06T14:33:22.850Z,32.80
2018-08-06T14:35:52.924Z,32.80
2018-08-06T14:38:23.016Z,32.90
2018-08-06T14:40:53.183Z,33.00
2018-08-06T14:43:23.244Z,33.30
2018-08-06T14:45:53.350Z,33.70
2018-08-06T14:48:23.433Z,34.10
2018-08-06T14:50:53.621Z,34.20
2018-08-06T14:53:23.732Z,34.30
2018-08-06T14:55:53.899Z,34.70
2018-08-06T14:58:24.795Z,34.70
2018-08-06T15:00:55.078Z,35.00
2018-08-06T15:03:25.245Z,35.40
2018-08-06T15:05:55.419Z,35.70
2018-08-06T15:08:25.770Z,36.00
2018-08-06T15:10:56.096Z,36.50
2018-08-06T15:13:26.235Z,36.80
2018-08-06T15:15:56.418Z,36.80
2018-08-06T15:18:26.504Z,36.80
2018-08-06T15:20:56.639Z,36.80
2018-08-06T15:23:26.757Z,36.70
2018-08-06T15:25:57.007Z,36.40
2018-08-06T15:28:27.167Z,36.60
2018-08-06T15:30:57.368Z,37.10
2018-08-06T15:33:27.481Z,37.00
2018-08-06T15:35:57.669Z,37.10
2018-08-06T15:38:27.798Z,37.10
2018-08-06T15:40:57.993Z,37.70
2018-08-06T15:43:28.136Z,38.40
2018-08-06T15:45:58.268Z,38.30
2018-08-06T15:48:28.486Z,38.60
2018-08-06T15:50:58.680Z,39.00
2018-08-06T15:53:28.920Z,39.20
2018-08-06T15:55:59.148Z,39.50
2018-08-06T15:58:29.377Z,39.50
2018-08-06T16:00:59.539Z,39.50
2018-08-06T16:03:30.683Z,39.30
2018-08-06T16:06:01.094Z,39.00
2018-08-06T16:08:32.268Z,39.00
2018-08-06T16:11:02.511Z,39.20
2018-08-06T16:13:41.098Z,38.70
2018-08-06T16:16:11.340Z,38.80
2018-08-06T16:18:41.434Z,38.70
2018-08-06T16:21:11.698Z,38.80
2018-08-06T16:23:41.800Z,38.60
2018-08-06T16:26:11.916Z,38.40
2018-08-06T16:28:42.147Z,38.50
2018-08-06T16:31:12.360Z,38.40
2018-08-06T16:33:42.546Z,37.90
2018-08-06T16:36:12.703Z,37.20
2018-08-06T16:38:42.829Z,37.10
2018-08-06T16:41:13.041Z,36.70
2018-08-06T16:43:43.204Z,35.70
2018-08-06T16:46:13.426Z,35.10
2018-08-06T16:48:43.678Z,34.60
2018-08-06T16:51:13.780Z,34.30
2018-08-06T16:53:43.931Z,34.10
2018-08-06T16:56:14.115Z,33.70
2018-08-06T16:58:44.235Z,33.20
2018-08-06T17:01:14.376Z,33.00
2018-08-06T17:03:44.560Z,32.70
2018-08-06T17:06:14.740Z,32.50
2018-08-06T17:08:44.796Z,32.40
2018-08-06T17:11:15.024Z,32.30
2018-08-06T17:13:45.171Z,32.30
2018-08-06T17:16:15.357Z,32.20
2018-08-06T17:18:45.543Z,32.40
2018-08-06T17:21:15.742Z,32.70
2018-08-06T17:23:45.825Z,32.90
2018-08-06T17:26:15.980Z,32.90
2018-08-06T17:28:46.102Z,32.60
2018-08-06T17:31:16.423Z,32.30
2018-08-06T17:33:46.564Z,32.00
2018-08-06T17:36:16.795Z,31.90
2018-08-06T17:38:46.929Z,32.00
2018-08-06T17:41:17.077Z,31.90
2018-08-06T17:43:47.194Z,31.60
2018-08-06T17:46:17.379Z,31.40
2018-08-06T17:48:47.839Z,31.30
2018-08-06T17:51:17.926Z,31.10
2018-08-06T17:53:48.008Z,31.00
2018-08-06T17:56:18.148Z,30.80
2018-08-06T17:58:48.296Z,30.80
2018-08-06T18:01:18.473Z,30.80
2018-08-06T18:03:48.561Z,30.80
2018-08-06T18:06:18.724Z,30.80
2018-08-06T18:08:49.016Z,30.70
2018-08-06T18:11:19.086Z,30.70
2018-08-06T18:13:49.164Z,30.60
2018-08-06T18:16:19.393Z,30.60
2018-08-06T18:18:49.544Z,30.40
2018-08-06T18:21:19.707Z,30.20
2018-08-06T18:23:49.747Z,30.10
2018-08-06T18:26:19.977Z,29.90
2018-08-06T18:28:50.120Z,29.70
2018-08-06T18:31:20.327Z,29.60
2018-08-06T18:33:50.555Z,29.50
2018-08-06T18:36:20.735Z,29.40
2018-08-06T18:38:51.890Z,29.20
2018-08-06T18:41:22.085Z,29.10
2018-08-06T18:43:52.217Z,28.90
2018-08-06T18:46:22.436Z,28.80
2018-08-06T18:48:52.566Z,28.70
2018-08-06T18:51:22.760Z,28.60
2018-08-06T18:53:52.874Z,28.50
2018-08-06T18:56:23.039Z,28.30
2018-08-06T18:58:53.204Z,28.20
2018-08-06T19:01:23.372Z,28.00
2018-08-06T19:03:53.756Z,27.90
2018-08-06T19:06:23.917Z,27.80
2018-08-06T19:08:53.969Z,27.60
2018-08-06T19:11:24.137Z,27.40
2018-08-06T19:13:59.238Z,27.30
2018-08-06T19:16:29.468Z,27.10
2018-08-06T19:19:04.554Z,27.00
2018-08-06T19:21:34.678Z,26.90
2018-08-06T19:24:09.804Z,26.90
2018-08-06T19:26:39.951Z,26.90
2018-08-06T19:29:09.990Z,26.80
2018-08-06T19:31:40.131Z,26.70
2018-08-06T19:34:10.267Z,26.60
2018-08-06T19:36:45.415Z,26.50
2018-08-06T19:39:15.620Z,26.40
2018-08-06T19:41:45.741Z,26.40
2018-08-06T19:44:15.916Z,26.30
2018-08-06T19:46:46.141Z,26.30
2018-08-06T19:50:23.323Z,26.10
2018-08-06T19:52:53.513Z,26.00
2018-08-06T19:55:28.923Z,26.00
2018-08-06T19:57:59.103Z,26.00
2018-08-06T20:00:29.468Z,26.10
2018-08-06T20:02:59.697Z,26.10
2018-08-06T20:05:29.869Z,26.00
2018-08-06T20:08:00.075Z,26.00
2018-08-06T20:10:30.742Z,26.00
2018-08-06T20:13:00.897Z,26.00
2018-08-06T20:15:31.037Z,26.00
2018-08-06T20:18:01.246Z,25.90
2018-08-06T20:20:31.411Z,25.90
2018-08-06T20:23:01.704Z,25.80
2018-08-06T20:25:31.834Z,25.80
2018-08-06T20:28:02.046Z,25.80
2018-08-06T20:30:32.247Z,25.70
2018-08-06T20:33:02.478Z,25.70
2018-08-06T20:35:32.626Z,25.80
2018-08-06T20:38:02.865Z,26.00
2018-08-06T20:40:33.016Z,26.10
2018-08-06T20:43:03.154Z,26.10
2018-08-06T20:45:33.350Z,26.10
2018-08-06T20:48:03.688Z,26.00
2018-08-06T20:50:33.821Z,25.90
2018-08-06T20:53:03.995Z,25.80
2018-08-06T20:55:34.119Z,25.70
2018-08-06T20:58:04.341Z,25.70
2018-08-06T21:00:34.515Z,25.60
2018-08-06T21:03:04.800Z,25.60
2018-08-06T21:05:34.998Z,25.50
2018-08-06T21:08:05.207Z,25.30
2018-08-06T21:10:35.474Z,25.20
2018-08-06T21:13:05.660Z,25.10
2018-08-06T21:15:35.849Z,25.00
2018-08-06T21:18:06.182Z,25.00
2018-08-06T21:20:36.279Z,24.90
2018-08-06T21:23:06.466Z,24.80
2018-08-06T21:25:36.591Z,24.70
2018-08-06T21:28:06.823Z,24.70
2018-08-06T21:30:36.899Z,24.70
2018-08-06T21:33:07.041Z,24.70
2018-08-06T21:35:37.254Z,24.60
2018-08-06T21:38:07.628Z,24.70
2018-08-06T21:40:37.837Z,24.70
2018-08-06T21:43:08.479Z,24.60
2018-08-06T21:45:38.692Z,24.60
2018-08-06T21:48:08.958Z,24.50
2018-08-06T21:50:39.136Z,24.40
2018-08-06T21:53:09.562Z,24.40
2018-08-06T21:55:39.895Z,24.40
2018-08-06T21:58:10.116Z,24.40
2018-08-06T22:00:41.334Z,24.30
2018-08-06T22:03:18.833Z,24.40
2018-08-06T22:05:48.993Z,24.40
2018-08-06T22:08:19.113Z,24.20
2018-08-06T22:10:49.231Z,24.10
2018-08-06T22:13:19.438Z,24.00
2018-08-06T22:15:49.653Z,23.80
2018-08-06T22:18:19.883Z,23.60
2018-08-06T22:20:50.076Z,23.40
2018-08-06T22:23:20.281Z,23.30
2018-08-06T22:25:50.452Z,23.10
2018-08-06T22:28:20.620Z,23.00
2018-08-06T22:30:50.741Z,22.90
2018-08-06T22:33:20.903Z,22.80
2018-08-06T22:35:51.201Z,22.70
2018-08-06T22:38:22.189Z,22.60
2018-08-06T22:40:52.380Z,22.50
2018-08-06T22:43:22.667Z,22.40
2018-08-06T22:45:52.803Z,22.30
2018-08-06T22:48:23.055Z,22.30
2018-08-06T22:50:53.235Z,22.30
2018-08-06T22:53:23.373Z,22.20
2018-08-06T22:56:04.465Z,22.10
2018-08-06T22:58:34.570Z,22.10
2018-08-06T23:01:04.852Z,21.90
2018-08-06T23:03:35.103Z,21.90
2018-08-06T23:06:05.425Z,21.80
2018-08-06T23:08:35.647Z,21.70
2018-08-06T23:11:05.824Z,21.70
2018-08-06T23:13:36.107Z,21.70
2018-08-06T23:16:06.438Z,21.70
2018-08-06T23:18:36.602Z,21.70
2018-08-06T23:21:06.861Z,21.60
2018-08-06T23:23:37.069Z,21.60
2018-08-06T23:26:07.287Z,21.60
2018-08-06T23:28:37.434Z,21.50
2018-08-06T23:31:07.766Z,21.60
2018-08-06T23:33:37.858Z,21.70
2018-08-06T23:36:08.021Z,21.70
2018-08-06T23:38:38.219Z,21.60
2018-08-06T23:41:08.429Z,21.60
2018-08-06T23:43:38.662Z,21.50
2018-08-06T23:46:08.757Z,21.40
2018-08-06T23:48:38.963Z,21.40
2018-08-06T23:51:09.799Z,21.30
2018-08-06T23:53:39.979Z,21.30
2018-08-06T23:56:10.194Z,21.20
2018-08-06T23:58:40.281Z,21.30
